createdAt,value
2023-04-28T00:00:22.621Z,0.44
2023-04-28T00:01:22.587Z,0.52
2023-04-28T00:02:22.656Z,0.48
2023-04-28T00:03:22.769Z,0.56
2023-04-28T00:04:23.436Z,0.36
2023-04-28T00:05:22.945Z,0.44
2023-04-28T00:06:22.812Z,0.44
2023-04-28T00:07:22.886Z,1.33
2023-04-28T00:08:22.936Z,0.59
2023-04-28T00:09:23.002Z,0.56
2023-04-28T00:10:23.063Z,0.54
2023-04-28T00:11:23.124Z,0.43
2023-04-28T00:12:23.165Z,0.64
2023-04-28T00:13:23.227Z,0.43
2023-04-28T00:14:23.291Z,0.43
2023-04-28T00:15:23.322Z,0.53
2023-04-28T00:16:23.420Z,0.55
2023-04-28T00:17:23.547Z,0.54
2023-04-28T00:18:23.567Z,0.59
2023-04-28T00:19:23.555Z,0.46
2023-04-28T00:20:23.594Z,0.52
2023-04-28T00:21:23.676Z,0.58
2023-04-28T00:22:23.700Z,0.52
2023-04-28T00:23:23.769Z,0.48
2023-04-28T00:24:23.828Z,0.51
2023-04-28T00:25:23.860Z,0.37
2023-04-28T00:26:23.927Z,0.60
2023-04-28T00:27:23.980Z,0.66
2023-04-28T00:29:24.036Z,0.37
2023-04-28T00:30:24.026Z,0.62
2023-04-28T00:31:24.020Z,0.39
2023-04-28T00:32:24.014Z,0.53
2023-04-28T00:33:24.010Z,0.67
2023-04-28T00:34:23.994Z,0.41
2023-04-28T00:35:23.969Z,0.42
2023-04-28T00:36:23.970Z,0.44
2023-04-28T00:37:23.979Z,0.49
2023-04-28T00:38:23.968Z,0.54
2023-04-28T00:39:23.979Z,0.50
2023-04-28T00:40:23.959Z,0.47
2023-04-28T00:41:23.932Z,0.46
2023-04-28T00:42:23.940Z,0.60
2023-04-28T00:43:23.934Z,0.57
2023-04-28T00:44:23.947Z,0.60
2023-04-28T00:45:23.921Z,0.56
2023-04-28T00:46:23.930Z,0.50
2023-04-28T00:47:23.937Z,0.49
2023-04-28T00:48:23.898Z,0.43
2023-04-28T00:49:23.877Z,0.33
2023-04-28T00:50:23.872Z,0.62
2023-04-28T00:51:23.887Z,0.36
2023-04-28T00:52:23.890Z,0.52
2023-04-28T00:53:23.868Z,0.53
2023-04-28T00:54:23.853Z,0.56
2023-04-28T00:55:23.859Z,0.53
2023-04-28T00:56:23.847Z,0.51
2023-04-28T00:57:23.836Z,0.79
2023-04-28T00:58:23.838Z,0.49
2023-04-28T00:59:23.842Z,0.55
2023-04-28T01:00:23.832Z,0.56
2023-04-28T01:01:23.874Z,0.57
2023-04-28T01:02:23.854Z,0.33
2023-04-28T01:03:24.033Z,0.57
2023-04-28T01:04:23.839Z,0.51
2023-04-28T01:05:23.797Z,0.36
2023-04-28T01:06:23.763Z,0.54
2023-04-28T01:07:23.781Z,0.43
2023-04-28T01:08:23.816Z,0.68
2023-04-28T01:09:23.876Z,0.55
2023-04-28T01:10:23.940Z,0.54
2023-04-28T01:11:23.988Z,0.49
2023-04-28T01:12:24.057Z,0.43
2023-04-28T01:13:24.109Z,0.43
2023-04-28T01:14:24.179Z,0.30
2023-04-28T01:15:24.233Z,0.52
2023-04-28T01:16:24.308Z,0.52
2023-04-28T01:17:24.348Z,0.43
2023-04-28T01:18:24.418Z,0.49
2023-04-28T01:19:24.476Z,0.54
2023-04-28T01:20:24.540Z,0.41
2023-04-28T01:21:24.584Z,0.44
2023-04-28T01:22:24.657Z,0.45
2023-04-28T01:23:24.711Z,0.56
2023-04-28T01:24:24.765Z,0.65
2023-04-28T01:25:24.831Z,0.60
2023-04-28T01:26:24.881Z,0.62
2023-04-28T01:27:24.933Z,0.41
2023-04-28T01:28:25.027Z,0.63
2023-04-28T01:29:25.064Z,0.73
2023-04-28T01:30:25.141Z,0.63
2023-04-28T01:31:25.199Z,0.31
2023-04-28T01:32:25.260Z,0.38
2023-04-28T01:33:25.297Z,0.52
2023-04-28T01:34:25.354Z,0.47
2023-04-28T01:35:25.405Z,0.69
2023-04-28T01:36:25.505Z,0.63
2023-04-28T01:37:25.533Z,0.41
2023-04-28T01:38:25.597Z,0.62
2023-04-28T01:39:25.668Z,0.49
2023-04-28T01:40:25.708Z,0.50
2023-04-28T01:41:25.769Z,0.52
2023-04-28T01:42:25.854Z,0.60
2023-04-28T01:43:25.893Z,0.71
2023-04-28T01:44:25.960Z,0.50
2023-04-28T01:45:25.994Z,0.58
2023-04-28T01:46:26.105Z,0.43
2023-04-28T01:47:26.179Z,0.42
2023-04-28T01:48:26.167Z,0.60
2023-04-28T01:49:26.227Z,0.58
2023-04-28T01:50:26.303Z,0.39
2023-04-28T01:51:26.345Z,0.45
2023-04-28T01:52:26.412Z,0.41
2023-04-28T01:53:26.475Z,0.49
2023-04-28T01:54:26.524Z,0.46
2023-04-28T01:55:26.599Z,0.45
2023-04-28T01:56:26.650Z,0.51
2023-04-28T01:57:26.695Z,0.54
2023-04-28T01:58:26.771Z,0.60
2023-04-28T01:59:26.822Z,0.49
2023-04-28T02:00:26.905Z,0.43
2023-04-28T02:01:26.986Z,0.48
2023-04-28T02:02:27.086Z,0.62
2023-04-28T02:03:27.164Z,0.58
2023-04-28T02:04:27.177Z,0.54
2023-04-28T02:05:27.196Z,0.59
2023-04-28T02:06:27.242Z,0.47
2023-04-28T02:07:27.294Z,0.65
2023-04-28T02:08:27.360Z,0.40
2023-04-28T02:09:27.419Z,0.47
2023-04-28T02:10:27.496Z,0.62
2023-04-28T02:11:27.510Z,0.37
2023-04-28T02:12:27.585Z,0.53
2023-04-28T02:13:27.622Z,0.36
2023-04-28T02:14:27.710Z,0.48
2023-04-28T02:15:27.765Z,0.59
2023-04-28T02:16:27.851Z,0.53
2023-04-28T02:17:27.951Z,0.43
2023-04-28T02:18:27.911Z,0.66
2023-04-28T02:19:27.968Z,0.46
2023-04-28T02:20:28.071Z,0.54
2023-04-28T02:21:28.079Z,0.48
2023-04-28T02:22:28.154Z,0.52
2023-04-28T02:23:28.208Z,0.37
2023-04-28T02:24:28.279Z,0.66
2023-04-28T02:25:28.335Z,0.59
2023-04-28T02:26:28.390Z,0.70
2023-04-28T02:27:28.457Z,0.51
2023-04-28T02:28:28.501Z,0.64
2023-04-28T02:29:28.580Z,0.34
2023-04-28T02:30:28.606Z,0.67
2023-04-28T02:31:28.688Z,0.72
2023-04-28T02:32:28.802Z,0.47
2023-04-28T02:33:28.803Z,0.64
2023-04-28T02:34:28.870Z,0.65
2023-04-28T02:35:28.929Z,0.46
2023-04-28T02:36:28.972Z,0.67
2023-04-28T02:37:29.026Z,0.78
2023-04-28T02:38:29.096Z,0.43
2023-04-28T02:39:29.151Z,0.59
2023-04-28T02:40:29.217Z,0.69
2023-04-28T02:41:29.269Z,0.54
2023-04-28T02:42:29.339Z,0.71
2023-04-28T02:43:29.382Z,0.59
2023-04-28T02:44:29.453Z,0.55
2023-04-28T02:45:29.511Z,0.81
2023-04-28T02:46:29.601Z,0.58
2023-04-28T02:47:29.651Z,0.60
2023-04-28T02:48:29.684Z,0.51
2023-04-28T02:49:29.752Z,0.48
2023-04-28T02:50:29.810Z,0.40
2023-04-28T02:51:29.862Z,0.60
2023-04-28T02:52:29.941Z,0.61
2023-04-28T02:53:29.981Z,0.39
2023-04-28T02:54:30.044Z,0.60
2023-04-28T02:55:30.101Z,0.76
2023-04-28T02:56:30.175Z,0.52
2023-04-28T02:57:30.227Z,0.55
2023-04-28T02:58:30.281Z,0.55
2023-04-28T02:59:30.341Z,0.44
2023-04-28T03:00:30.386Z,0.75
2023-04-28T03:01:30.500Z,0.52
2023-04-28T03:02:30.620Z,0.59
2023-04-28T03:03:30.700Z,0.48
2023-04-28T03:04:30.683Z,0.58
2023-04-28T03:05:30.684Z,0.62
2023-04-28T03:06:30.743Z,0.53
2023-04-28T03:07:30.787Z,0.44
2023-04-28T03:08:30.865Z,0.55
2023-04-28T03:09:30.897Z,0.55
2023-04-28T03:10:30.976Z,0.64
2023-04-28T03:11:31.021Z,0.48
2023-04-28T03:12:31.085Z,0.66
2023-04-28T03:13:31.151Z,0.52
2023-04-28T03:14:31.185Z,0.43
2023-04-28T03:15:31.238Z,0.61
2023-04-28T03:16:31.304Z,0.46
2023-04-28T03:17:31.442Z,0.48
2023-04-28T03:18:31.394Z,0.65
2023-04-28T03:19:31.462Z,0.63
2023-04-28T03:20:31.528Z,0.50
2023-04-28T03:21:31.589Z,0.43
2023-04-28T03:22:31.662Z,0.76
2023-04-28T03:23:31.692Z,0.50
2023-04-28T03:24:31.757Z,0.48
2023-04-28T03:25:31.820Z,0.64
2023-04-28T03:26:31.863Z,0.46
2023-04-28T03:27:31.926Z,0.56
2023-04-28T03:28:31.993Z,0.43
2023-04-28T03:29:32.046Z,0.60
2023-04-28T03:30:32.103Z,0.63
2023-04-28T03:31:32.184Z,0.62
2023-04-28T03:32:32.268Z,0.48
2023-04-28T03:33:32.285Z,0.74
2023-04-28T03:34:32.338Z,0.49
2023-04-28T03:35:32.372Z,0.78
2023-04-28T03:36:32.456Z,0.82
2023-04-28T03:37:32.506Z,0.61
2023-04-28T03:38:32.561Z,0.55
2023-04-28T03:39:32.611Z,0.83
2023-04-28T03:40:32.675Z,0.59
2023-04-28T03:41:32.736Z,0.87
2023-04-28T03:42:32.776Z,0.59
2023-04-28T03:43:32.847Z,0.77
2023-04-28T03:44:32.913Z,0.69
2023-04-28T03:45:32.996Z,0.65
2023-04-28T03:46:33.030Z,0.65
2023-04-28T03:47:33.071Z,0.45
2023-04-28T03:48:33.115Z,0.75
2023-04-28T03:49:33.180Z,0.57
2023-04-28T03:50:33.276Z,0.65
2023-04-28T03:51:33.322Z,0.64
2023-04-28T03:52:33.373Z,0.52
2023-04-28T03:53:33.427Z,0.84
2023-04-28T03:54:33.478Z,0.96
2023-04-28T03:55:33.523Z,0.56
2023-04-28T03:56:33.599Z,0.72
2023-04-28T03:57:33.714Z,0.56
2023-04-28T03:58:33.706Z,0.76
2023-04-28T03:59:33.776Z,0.66
2023-04-28T04:00:33.830Z,0.73
2023-04-28T04:01:33.890Z,0.55
2023-04-28T04:02:34.095Z,0.62
2023-04-28T04:03:34.192Z,0.56
2023-04-28T04:04:34.337Z,0.64
2023-04-28T04:05:34.146Z,0.68
2023-04-28T04:06:34.196Z,0.59
2023-04-28T04:07:34.229Z,0.82
2023-04-28T04:08:34.306Z,0.85
2023-04-28T04:09:34.346Z,0.94
2023-04-28T04:10:34.406Z,0.79
2023-04-28T04:11:34.442Z,0.80
2023-04-28T04:12:34.497Z,0.80
2023-04-28T04:13:34.569Z,0.72
2023-04-28T04:14:34.616Z,1.28
2023-04-28T04:15:34.724Z,0.81
2023-04-28T04:16:34.741Z,0.87
2023-04-28T04:17:34.814Z,0.71
2023-04-28T04:18:34.848Z,0.60
2023-04-28T04:19:34.892Z,0.59
2023-04-28T04:20:34.973Z,0.73
2023-04-28T04:21:35.028Z,0.66
2023-04-28T04:22:35.085Z,0.80
2023-04-28T04:23:35.114Z,0.61
2023-04-28T04:24:35.181Z,0.68
2023-04-28T04:25:35.248Z,0.66
2023-04-28T04:26:35.294Z,0.86
2023-04-28T04:27:35.359Z,0.67
2023-04-28T04:28:35.393Z,0.71
2023-04-28T04:29:35.476Z,0.71
2023-04-28T04:30:35.512Z,0.84
2023-04-28T04:31:35.640Z,0.67
2023-04-28T04:32:35.716Z,0.68
2023-04-28T04:33:35.702Z,0.79
2023-04-28T04:34:35.744Z,0.71
2023-04-28T04:35:35.818Z,0.76
2023-04-28T04:36:35.872Z,0.91
2023-04-28T04:37:35.938Z,0.66
2023-04-28T04:38:35.988Z,0.73
2023-04-28T04:39:36.046Z,0.70
2023-04-28T04:40:36.106Z,0.80
2023-04-28T04:41:36.171Z,0.86
2023-04-28T04:42:36.206Z,0.59
2023-04-28T04:43:36.278Z,0.51
2023-04-28T04:44:36.349Z,0.88
2023-04-28T04:45:36.398Z,0.63
2023-04-28T04:46:36.463Z,0.79
2023-04-28T04:47:36.538Z,0.66
2023-04-28T04:48:36.593Z,0.92
2023-04-28T04:49:36.616Z,0.52
2023-04-28T04:50:36.677Z,0.63
2023-04-28T04:51:36.731Z,0.63
2023-04-28T04:52:36.772Z,0.88
2023-04-28T04:53:36.820Z,0.83
2023-04-28T04:54:36.876Z,0.54
2023-04-28T04:55:36.926Z,0.73
2023-04-28T04:56:36.997Z,0.53
2023-04-28T04:57:37.042Z,0.63
2023-04-28T04:58:37.112Z,0.67
2023-04-28T04:59:37.158Z,0.84
2023-04-28T05:00:37.213Z,0.79
2023-04-28T05:01:37.304Z,0.56
2023-04-28T05:02:37.495Z,0.63
2023-04-28T05:03:37.566Z,0.67
2023-04-28T05:04:37.578Z,0.70
2023-04-28T05:05:37.520Z,0.77
2023-04-28T05:06:37.565Z,1.03
2023-04-28T05:07:37.654Z,0.40
2023-04-28T05:08:37.684Z,1.01
2023-04-28T05:09:37.739Z,0.48
2023-04-28T05:10:37.808Z,0.71
2023-04-28T05:11:37.848Z,0.85
2023-04-28T05:12:37.891Z,0.76
2023-04-28T05:13:38.034Z,0.81
2023-04-28T05:14:38.014Z,1.01
2023-04-28T05:15:38.068Z,0.73
2023-04-28T05:16:38.173Z,0.68
2023-04-28T05:17:38.227Z,0.80
2023-04-28T05:18:38.263Z,0.85
2023-04-28T05:19:38.302Z,1.09
2023-04-28T05:20:38.367Z,0.76
2023-04-28T05:21:38.431Z,0.98
2023-04-28T05:22:38.510Z,0.89
2023-04-28T05:23:38.559Z,0.96
2023-04-28T05:24:38.574Z,0.79
2023-04-28T05:25:38.636Z,0.81
2023-04-28T05:26:38.760Z,0.78
2023-04-28T05:27:38.748Z,1.09
2023-04-28T05:28:38.803Z,1.17
2023-04-28T05:29:38.868Z,0.90
2023-04-28T05:30:38.919Z,1.75
2023-04-28T05:31:39.390Z,1.26
2023-04-28T05:32:39.153Z,1.39
2023-04-28T05:33:39.089Z,1.39
2023-04-28T05:34:39.141Z,1.17
2023-04-28T05:35:39.340Z,1.15
2023-04-28T05:36:39.272Z,1.54
2023-04-28T05:37:39.321Z,1.13
2023-04-28T05:38:39.381Z,1.47
2023-04-28T05:39:39.436Z,1.53
2023-04-28T05:40:39.490Z,1.59
2023-04-28T05:41:39.563Z,1.77
2023-04-28T05:42:39.655Z,1.60
2023-04-28T05:43:39.675Z,1.62
2023-04-28T05:44:41.803Z,1.33
2023-04-28T05:45:39.750Z,1.22
2023-04-28T05:46:39.866Z,0.98
2023-04-28T05:47:39.770Z,1.13
2023-04-28T05:48:39.737Z,0.94
2023-04-28T05:49:39.714Z,1.04
2023-04-28T05:50:39.759Z,0.84
2023-04-28T05:51:39.706Z,1.00
2023-04-28T05:52:39.694Z,1.00
2023-04-28T05:53:39.697Z,1.00
2023-04-28T05:54:39.733Z,0.74
2023-04-28T05:55:39.681Z,0.99
2023-04-28T05:56:39.658Z,0.84
2023-04-28T05:57:49.825Z,1.01
2023-04-28T05:58:40.671Z,1.13
2023-04-28T05:59:39.653Z,1.39
2023-04-28T06:00:39.644Z,1.60
2023-04-28T06:01:39.653Z,1.43
2023-04-28T06:02:39.745Z,1.53
2023-04-28T06:03:39.830Z,0.98
2023-04-28T06:04:39.828Z,1.12
2023-04-28T06:05:39.870Z,1.58
2023-04-28T06:06:39.885Z,1.83
2023-04-28T06:07:39.866Z,1.54
2023-04-28T06:08:39.652Z,1.45
2023-04-28T06:09:39.695Z,1.62
2023-04-28T06:10:39.768Z,1.80
2023-04-28T06:11:39.815Z,1.76
2023-04-28T06:12:39.862Z,1.44
2023-04-28T06:13:39.881Z,1.74
2023-04-28T06:14:39.883Z,1.90
2023-04-28T06:15:39.950Z,1.90
2023-04-28T06:16:39.921Z,2.31
2023-04-28T06:17:40.366Z,1.96
2023-04-28T06:18:39.896Z,1.92
2023-04-28T06:19:39.944Z,1.90
2023-04-28T06:20:39.934Z,2.63
2023-04-28T06:21:39.947Z,2.30
2023-04-28T06:22:39.961Z,2.09
2023-04-28T06:23:39.960Z,2.13
2023-04-28T06:24:39.977Z,1.97
2023-04-28T06:25:39.978Z,1.84
2023-04-28T06:26:39.986Z,1.65
2023-04-28T06:27:39.990Z,1.86
2023-04-28T06:28:40.016Z,2.07
2023-04-28T06:29:40.005Z,1.89
2023-04-28T06:30:40.018Z,1.96
2023-04-28T06:31:40.447Z,1.62
2023-04-28T06:32:40.034Z,2.06
2023-04-28T06:33:40.031Z,1.65
2023-04-28T06:34:40.099Z,2.47
2023-04-28T06:35:40.142Z,2.03
2023-04-28T06:36:40.410Z,1.84
2023-04-28T06:37:40.249Z,2.27
2023-04-28T06:38:40.306Z,2.13
2023-04-28T06:39:40.348Z,2.07
2023-04-28T06:40:40.418Z,2.36
2023-04-28T06:41:40.438Z,2.50
2023-04-28T06:42:40.874Z,2.19
2023-04-28T06:43:40.482Z,2.54
2023-04-28T06:44:40.523Z,2.26
2023-04-28T06:45:40.515Z,1.96
2023-04-28T06:46:40.576Z,2.10
2023-04-28T06:47:40.731Z,1.68
2023-04-28T06:48:40.624Z,2.06
2023-04-28T06:49:40.713Z,2.17
2023-04-28T06:50:42.390Z,1.89
2023-04-28T06:51:40.773Z,1.80
2023-04-28T06:52:40.864Z,1.77
2023-04-28T06:53:40.784Z,2.10
2023-04-28T06:54:40.757Z,1.68
2023-04-28T06:55:40.758Z,1.51
2023-04-28T06:56:40.878Z,1.77
2023-04-28T06:57:40.892Z,1.66
2023-04-28T06:58:40.736Z,1.89
2023-04-28T06:59:40.715Z,1.65
2023-04-28T07:00:40.729Z,1.65
2023-04-28T07:01:40.724Z,1.95
2023-04-28T07:02:40.860Z,1.39
2023-04-28T07:03:40.775Z,1.80
2023-04-28T07:04:40.702Z,1.85
2023-04-28T07:05:40.678Z,1.77
2023-04-28T07:06:40.686Z,1.78
2023-04-28T07:07:40.896Z,1.36
2023-04-28T07:08:40.688Z,1.70
2023-04-28T07:09:40.683Z,1.62
2023-04-28T07:10:40.673Z,1.74
2023-04-28T07:11:40.644Z,1.58
2023-04-28T07:12:40.647Z,1.30
2023-04-28T07:13:40.643Z,1.63
2023-04-28T07:14:40.642Z,1.73
2023-04-28T07:15:40.625Z,1.51
2023-04-28T07:16:40.670Z,1.14
2023-04-28T07:17:40.944Z,2.10
2023-04-28T07:18:40.605Z,1.36
2023-04-28T07:19:40.723Z,1.34
2023-04-28T07:20:40.599Z,1.33
2023-04-28T07:21:40.605Z,1.44
2023-04-28T07:22:40.573Z,1.76
2023-04-28T07:23:40.581Z,1.53
2023-04-28T07:24:40.578Z,1.76
2023-04-28T07:25:40.582Z,1.76
2023-04-28T07:26:40.903Z,1.55
2023-04-28T07:27:40.552Z,1.71
2023-04-28T07:28:40.533Z,1.42
2023-04-28T07:29:40.540Z,1.52
2023-04-28T07:30:40.535Z,2.52
2023-04-28T07:31:40.537Z,2.31
2023-04-28T07:32:40.902Z,1.96
2023-04-28T07:33:40.518Z,1.73
2023-04-28T07:34:40.687Z,2.02
2023-04-28T07:35:40.500Z,1.67
2023-04-28T07:36:40.489Z,1.25
2023-04-28T07:37:40.472Z,1.66
2023-04-28T07:38:40.515Z,2.12
2023-04-28T07:39:40.563Z,1.84
2023-04-28T07:40:40.539Z,2.66
2023-04-28T07:41:40.600Z,1.59
2023-04-28T07:42:40.664Z,1.96
2023-04-28T07:43:40.707Z,1.94
2023-04-28T07:44:40.779Z,1.66
2023-04-28T07:45:40.860Z,1.93
2023-04-28T07:46:40.850Z,2.11
2023-04-28T07:47:40.950Z,2.28
2023-04-28T07:48:41.394Z,1.65
2023-04-28T07:49:40.977Z,2.08
2023-04-28T07:50:41.023Z,1.55
2023-04-28T07:51:41.073Z,2.06
2023-04-28T07:52:41.374Z,2.13
2023-04-28T07:53:41.371Z,2.05
2023-04-28T07:54:41.116Z,1.83
2023-04-28T07:55:41.124Z,1.62
2023-04-28T07:56:41.164Z,2.35
2023-04-28T07:57:41.172Z,1.82
2023-04-28T07:58:41.371Z,1.96
2023-04-28T07:59:41.185Z,1.51
2023-04-28T08:00:41.365Z,1.75
2023-04-28T08:01:41.242Z,1.84
2023-04-28T08:02:41.361Z,1.93
2023-04-28T08:03:41.459Z,1.84
2023-04-28T08:04:41.478Z,1.44
2023-04-28T08:05:41.415Z,1.92
2023-04-28T08:06:41.277Z,1.66
2023-04-28T08:07:41.400Z,1.46
2023-04-28T08:08:41.386Z,1.95
2023-04-28T08:09:41.812Z,1.47
2023-04-28T08:10:41.259Z,1.26
2023-04-28T08:11:41.274Z,1.46
2023-04-28T08:12:41.261Z,1.54
2023-04-28T08:13:41.259Z,1.71
2023-04-28T08:14:41.283Z,1.66
2023-04-28T08:15:41.327Z,1.39
2023-04-28T08:16:41.508Z,1.36
2023-04-28T08:17:41.379Z,1.56
2023-04-28T08:18:41.517Z,1.28
2023-04-28T08:19:41.386Z,1.39
2023-04-28T08:20:41.400Z,1.57
2023-04-28T08:21:41.415Z,1.82
2023-04-28T08:22:41.457Z,2.10
2023-04-28T08:23:41.892Z,1.66
2023-04-28T08:24:41.532Z,2.49
2023-04-28T08:25:41.534Z,2.91
2023-04-28T08:26:41.567Z,2.84
2023-04-28T08:27:41.619Z,3.49
2023-04-28T08:28:41.619Z,3.95
2023-04-28T08:29:41.672Z,4.05
2023-04-28T08:30:41.735Z,4.21
2023-04-28T08:31:41.811Z,3.97
2023-04-28T08:32:41.851Z,3.08
2023-04-28T08:33:41.888Z,2.83
2023-04-28T08:34:41.828Z,3.04
2023-04-28T08:35:41.826Z,2.86
2023-04-28T08:36:41.859Z,3.05
2023-04-28T08:37:41.874Z,2.66
2023-04-28T08:38:41.932Z,2.04
2023-04-28T08:39:41.949Z,2.06
2023-04-28T08:40:41.922Z,2.05
2023-04-28T08:41:41.942Z,1.91
2023-04-28T08:42:42.020Z,1.64
2023-04-28T08:43:42.096Z,1.65
2023-04-28T08:44:42.155Z,2.03
2023-04-28T08:45:42.178Z,1.81
2023-04-28T08:46:42.271Z,2.57
2023-04-28T08:47:42.261Z,2.17
2023-04-28T08:48:42.230Z,2.71
2023-04-28T08:49:42.268Z,2.36
2023-04-28T08:50:42.322Z,2.36
2023-04-28T08:51:42.338Z,2.20
2023-04-28T08:52:42.334Z,2.38
2023-04-28T08:54:06.114Z,2.96
2023-04-28T08:54:43.312Z,2.70
2023-04-28T08:55:42.321Z,2.53
2023-04-28T08:56:42.320Z,2.36
2023-04-28T08:57:42.321Z,2.69
2023-04-28T08:58:42.276Z,2.70
2023-04-28T08:59:42.298Z,2.70
2023-04-28T09:00:42.291Z,2.59
2023-04-28T09:01:42.276Z,2.37
2023-04-28T09:02:42.650Z,3.04
2023-04-28T09:03:42.394Z,2.27
2023-04-28T09:04:42.425Z,2.15
2023-04-28T09:05:42.289Z,2.26
2023-04-28T09:06:42.216Z,2.12
2023-04-28T09:07:42.222Z,2.38
2023-04-28T09:08:42.206Z,2.10
2023-04-28T09:09:42.209Z,2.38
2023-04-28T09:10:42.208Z,2.11
2023-04-28T09:11:42.169Z,2.36
2023-04-28T09:12:42.394Z,2.08
2023-04-28T09:13:42.224Z,2.36
2023-04-28T09:14:42.225Z,2.91
2023-04-28T09:15:42.294Z,2.42
2023-04-28T09:16:42.425Z,2.16
2023-04-28T09:17:42.389Z,2.81
2023-04-28T09:18:42.390Z,2.51
2023-04-28T09:19:42.402Z,2.73
2023-04-28T09:20:42.461Z,2.69
2023-04-28T09:21:42.504Z,2.50
2023-04-28T09:22:42.550Z,2.35
2023-04-28T09:23:42.619Z,2.44
2023-04-28T09:24:42.611Z,2.20
2023-04-28T09:25:42.654Z,2.63
2023-04-28T09:26:42.738Z,2.51
2023-04-28T09:27:42.760Z,2.69
2023-04-28T09:28:42.915Z,2.77
2023-04-28T09:29:42.761Z,2.78
2023-04-28T09:30:42.856Z,2.75
2023-04-28T09:31:42.880Z,2.46
2023-04-28T09:32:43.434Z,2.27
2023-04-28T09:33:42.964Z,2.57
2023-04-28T09:34:43.004Z,2.58
2023-04-28T09:35:43.084Z,2.44
2023-04-28T09:36:43.093Z,2.16
2023-04-28T09:37:43.427Z,2.53
2023-04-28T09:38:43.397Z,2.16
2023-04-28T09:39:43.142Z,2.14
2023-04-28T09:40:43.162Z,2.65
2023-04-28T09:41:43.149Z,2.25
2023-04-28T09:42:43.198Z,2.25
2023-04-28T09:43:43.189Z,2.39
2023-04-28T09:44:43.181Z,2.22
2023-04-28T09:45:43.232Z,1.83
2023-04-28T09:46:43.205Z,2.34
2023-04-28T09:47:43.459Z,2.47
2023-04-28T09:48:43.226Z,2.21
2023-04-28T09:49:43.233Z,2.38
2023-04-28T09:50:43.227Z,1.93
2023-04-28T09:51:43.274Z,1.45
2023-04-28T09:52:43.355Z,1.37
2023-04-28T09:53:43.413Z,2.08
2023-04-28T09:54:43.446Z,1.94
2023-04-28T09:55:43.533Z,2.09
2023-04-28T09:56:43.572Z,2.12
2023-04-28T09:57:43.614Z,2.22
2023-04-28T09:58:43.901Z,1.97
2023-04-28T09:59:43.705Z,1.94
2023-04-28T10:00:43.735Z,2.05
2023-04-28T10:01:43.911Z,1.64
2023-04-28T10:02:44.343Z,1.70
2023-04-28T10:03:43.961Z,1.62
2023-04-28T10:04:43.882Z,1.54
2023-04-28T10:05:43.917Z,1.56
2023-04-28T10:06:43.829Z,1.63
2023-04-28T10:07:43.835Z,1.73
2023-04-28T10:08:43.828Z,1.58
2023-04-28T10:09:43.815Z,1.61
2023-04-28T10:10:43.796Z,1.44
2023-04-28T10:11:43.878Z,1.73
2023-04-28T10:12:43.883Z,1.67
2023-04-28T10:13:43.932Z,1.66
2023-04-28T10:14:44.213Z,1.41
2023-04-28T10:15:44.087Z,1.63
2023-04-28T10:16:44.113Z,1.44
2023-04-28T10:17:44.182Z,1.56
2023-04-28T10:18:44.239Z,1.61
2023-04-28T10:19:44.294Z,1.75
2023-04-28T10:20:44.391Z,1.49
2023-04-28T10:21:44.437Z,1.89
2023-04-28T10:22:44.479Z,1.51
2023-04-28T10:23:44.907Z,1.32
2023-04-28T10:24:44.586Z,1.63
2023-04-28T10:25:44.632Z,1.65
2023-04-28T10:26:44.709Z,1.30
2023-04-28T10:27:44.771Z,1.95
2023-04-28T10:28:44.824Z,1.87
2023-04-28T10:29:44.857Z,1.99
2023-04-28T10:30:44.908Z,1.92
2023-04-28T10:31:44.956Z,1.81
2023-04-28T10:32:45.019Z,1.87
2023-04-28T10:33:45.025Z,1.74
2023-04-28T10:34:45.043Z,2.29
2023-04-28T10:35:45.117Z,1.93
2023-04-28T10:36:45.130Z,2.15
2023-04-28T10:37:45.145Z,1.95
2023-04-28T10:38:45.167Z,1.52
2023-04-28T10:39:45.168Z,1.76
2023-04-28T10:40:45.220Z,2.10
2023-04-28T10:41:45.240Z,2.02
2023-04-28T10:42:45.233Z,2.18
2023-04-28T10:43:45.288Z,2.02
2023-04-28T10:44:45.285Z,2.28
2023-04-28T10:45:45.313Z,1.77
2023-04-28T10:46:45.325Z,1.78
2023-04-28T10:47:45.383Z,2.00
2023-04-28T10:48:45.352Z,2.15
2023-04-28T10:49:45.355Z,1.83
2023-04-28T10:50:45.368Z,2.46
2023-04-28T10:51:45.404Z,1.82
2023-04-28T10:52:45.413Z,2.00
2023-04-28T10:53:45.770Z,1.93
2023-04-28T10:54:45.439Z,1.69
2023-04-28T10:55:45.429Z,1.58
2023-04-28T10:56:45.447Z,1.70
2023-04-28T10:57:45.434Z,1.51
2023-04-28T10:58:45.455Z,1.68
2023-04-28T10:59:45.482Z,3.75
2023-04-28T11:00:45.470Z,1.81
2023-04-28T11:01:45.464Z,1.58
2023-04-28T11:02:45.638Z,1.29
2023-04-28T11:03:45.576Z,1.88
2023-04-28T11:04:45.729Z,1.58
2023-04-28T11:05:45.437Z,1.50
2023-04-28T11:06:45.439Z,1.79
2023-04-28T11:07:45.444Z,1.59
2023-04-28T11:08:45.925Z,2.21
2023-04-28T11:09:45.447Z,1.85
2023-04-28T11:10:45.446Z,1.72
2023-04-28T11:11:45.435Z,2.05
2023-04-28T11:12:45.477Z,1.68
2023-04-28T11:13:45.941Z,2.00
2023-04-28T11:14:45.472Z,1.91
2023-04-28T11:15:45.471Z,1.63
2023-04-28T11:16:45.533Z,1.81
2023-04-28T11:17:45.523Z,1.74
2023-04-28T11:18:45.935Z,1.75
2023-04-28T11:19:45.517Z,1.78
2023-04-28T11:20:45.531Z,1.73
2023-04-28T11:21:45.556Z,1.86
2023-04-28T11:22:45.567Z,1.52
2023-04-28T11:23:45.938Z,2.00
2023-04-28T11:24:45.616Z,1.79
2023-04-28T11:25:45.657Z,1.76
2023-04-28T11:26:45.690Z,1.31
2023-04-28T11:27:45.699Z,1.89
2023-04-28T11:28:45.755Z,1.41
2023-04-28T11:29:45.757Z,1.68
2023-04-28T11:30:45.797Z,1.60
2023-04-28T11:31:45.867Z,1.59
2023-04-28T11:32:45.906Z,1.59
2023-04-28T11:33:45.877Z,1.53
2023-04-28T11:34:45.891Z,2.58
2023-04-28T11:35:45.918Z,1.65
2023-04-28T11:36:45.978Z,1.61
2023-04-28T11:37:45.972Z,1.35
2023-04-28T11:38:46.007Z,1.11
2023-04-28T11:39:46.044Z,1.28
2023-04-28T11:40:46.081Z,1.47
2023-04-28T11:41:46.117Z,1.40
2023-04-28T11:42:46.159Z,0.92
2023-04-28T11:43:47.715Z,1.06
2023-04-28T11:44:46.233Z,1.59
2023-04-28T11:45:46.258Z,1.19
2023-04-28T11:46:46.294Z,1.20
2023-04-28T11:47:46.387Z,1.58
2023-04-28T11:48:46.390Z,1.22
2023-04-28T11:49:46.421Z,1.02
2023-04-28T11:50:46.457Z,1.16
2023-04-28T11:51:46.535Z,1.12
2023-04-28T11:52:46.560Z,1.18
2023-04-28T11:53:46.605Z,1.07
2023-04-28T11:54:46.650Z,1.07
2023-04-28T11:55:46.676Z,1.28
2023-04-28T11:56:46.721Z,0.83
2023-04-28T11:57:46.785Z,1.41
2023-04-28T11:58:46.816Z,1.34
2023-04-28T11:59:47.093Z,0.96
2023-04-28T12:00:46.891Z,1.17
2023-04-28T12:01:46.955Z,0.89
2023-04-28T12:02:47.145Z,1.10
2023-04-28T12:03:47.117Z,0.90
2023-04-28T12:04:47.096Z,1.10
2023-04-28T12:05:47.186Z,1.03
2023-04-28T12:06:47.177Z,0.81
2023-04-28T12:07:47.231Z,0.79
2023-04-28T12:08:47.289Z,1.00
2023-04-28T12:09:47.341Z,1.46
2023-04-28T12:10:47.387Z,0.86
2023-04-28T12:11:47.435Z,0.92
2023-04-28T12:12:51.603Z,1.16
2023-04-28T12:13:48.459Z,0.83
2023-04-28T12:14:47.463Z,0.96
2023-04-28T12:15:47.500Z,1.34
2023-04-28T12:16:47.458Z,1.13
2023-04-28T12:17:47.532Z,0.84
2023-04-28T12:18:47.428Z,1.35
2023-04-28T12:19:47.419Z,0.82
2023-04-28T12:20:47.434Z,0.88
2023-04-28T12:21:47.431Z,0.95
2023-04-28T12:22:47.414Z,1.17
2023-04-28T12:23:47.413Z,1.55
2023-04-28T12:24:47.388Z,0.92
2023-04-28T12:25:47.461Z,1.01
2023-04-28T12:26:47.532Z,0.94
2023-04-28T12:27:47.562Z,0.90
2023-04-28T12:28:47.610Z,0.95
2023-04-28T12:29:47.648Z,0.66
